ADDS METAR Data INFO
IDs: Format: Raw Decoded Include TAF

Data at: 0431 UTC 21 Nov 2017

KALI 210353Z AUTO 00000KT 10SM FEW040 BKN050 15/12 A3002 RMK AO2 SLP163 T01500117
KALI 210253Z AUTO 00000KT 10SM OVC055 16/12 A3003 RMK AO2 SLP167 T01610117 50002
KALI 210153Z AUTO 13003KT 10SM BKN055 17/12 A3003 RMK AO2 SLP169 T01670117
KALI 210053Z AUTO 11005KT 10SM OVC055 18/12 A3003 RMK AO2 SLP169 T01780117
KALI 202353Z AUTO 13005KT 10SM OVC047 18/11 A3002 RMK AO2 SLP165 T01830111 10200 20183 56009
KALI 202253Z AUTO 13005KT 10SM OVC047 19/11 A3003 RMK AO2 SLP169 T01890106
KALI 202153Z AUTO 12006KT 10SM OVC035 19/10 A3003 RMK AO2 SLP170 T01940100
KALI 202053Z AUTO 11008KT 10SM OVC041 20/09 A3005 RMK AO2 SLP174 T02000094 56038
KALI 201953Z AUTO 12006KT 10SM OVC045 20/09 A3008 RMK AO2 SLP184 T02000089
KALI 201853Z AUTO 11007KT 10SM OVC049 19/08 A3012 RMK AO2 SLP196 T01940083
KALI 201753Z AUTO 09003KT 10SM OVC055 19/07 A3016 RMK AO2 SLP211 60000 T01890072 10206 20078 58008
KALI 201653Z AUTO 06008KT 10SM CLR 20/06 A3018 RMK AO2 SLP218 T02000061
KALI 201553Z AUTO 07009KT 10SM CLR 18/04 A3019 RMK AO2 SLP221 T01780039
KALI 201453Z AUTO 04008KT 10SM CLR 13/05 A3018 RMK AO2 SLP220 60000 T01280050 50005
KALI 201353Z AUTO 03005KT 10SM SCT040 BKN055 10/05 A3019 RMK AO2 RAE01 SLP223 P0000 T01000050
KALI 201316Z AUTO 03004KT 10SM FEW070 09/05 A3018 RMK AO2 LTG DSNT SE RAE01 P0000 T00940050
KALI 201301Z AUTO 05005KT 10SM VCTS FEW042 SCT090 SCT110 09/04 A3017 RMK AO2 RAE01 P0000 T00940044
KALI 201253Z AUTO 04005KT 10SM -RA FEW042 SCT090 BKN110 09/04 A3017 RMK AO2 RAB39 SLP215 P0000 T00940044
KALI 201153Z AUTO 33004KT 10SM CLR 08/04 A3017 RMK AO2 SLP215 T00780039 10106 20072 56004
KALI 201053Z AUTO 34005KT 10SM CLR 07/03 A3017 RMK AO2 SLP215 T00720033
KALI 200953Z AUTO 32004KT 10SM CLR 08/03 A3018 RMK AO2 SLP217 T00830033
KALI 200853Z AUTO 33003KT 10SM CLR 07/03 A3018 RMK AO2 SLP219 T00720028 58009
KALI 200753Z AUTO 30003KT 10SM CLR 09/03 A3019 RMK AO2 SLP223 T00940033
KALI 200653Z AUTO 29004KT 10SM CLR 11/04 A3022 RMK AO2 SLP231 T01060039
KALI 200553Z AUTO 22003KT 10SM CLR 10/03 A3021 RMK AO2 SLP228 T01000033 10156 20094 402060094 58012
KALI 200453Z AUTO 25004KT 10SM CLR 11/03 A3024 RMK AO2 SLP238 T01060033
KALI 200353Z AUTO 00000KT 10SM CLR 11/02 A3025 RMK AO2 SLP242 T01110017
KALI 200253Z AUTO 00000KT 10SM CLR 11/01 A3024 RMK AO2 SLP240 T01110011 53010
KALI 200153Z AUTO 10003KT 10SM CLR 12/00 A3023 RMK AO2 SLP236 T01170000
KALI 200053Z AUTO 04004KT 10SM CLR 13/M01 A3022 RMK AO2 SLP234 T01331011
KALI 192353Z AUTO 04004KT 10SM CLR 15/M02 A3021 RMK AO2 SLP230 T01501022 10206 20150 56006
KALI 192253Z AUTO 03006KT 10SM CLR 19/M04 A3021 RMK AO2 SLP229 T01891039
KALI 192153Z AUTO 03009KT 10SM CLR 20/M04 A3021 RMK AO2 SLP229 T02001039
KALI 192053Z AUTO 36008KT 10SM CLR 21/M04 A3023 RMK AO2 SLP235 T02061044 56037
KALI 191953Z AUTO 04009G14KT 10SM CLR 19/M04 A3026 RMK AO2 SLP245 T01941039
KALI 191853Z AUTO 04009G17KT 10SM CLR 19/M03 A3030 RMK AO2 SLP259 T01941033
KALI 191753Z AUTO 06011G17KT 10SM CLR 18/M02 A3034 RMK AO2 SLP272 T01781017 10183 20100 58009
KALI 191653Z AUTO 04015G21KT 10SM CLR 17/M02 A3037 RMK AO2 SLP282 T01721017